Flight Track Log - Related Links

Times and Time Zones

All times are in EST time to prevent confusion due to time zone crossing. See the CPT7773 flight status page for this flight to view local times or setup timezone preferences in your user account.

Time Position Orientation Groundspeed Altitude Reporting Facility
EST Latitude Longitude Course Direction KTS MPH feet Rate Location/Type
Thu 07:55:27 PM 44.4769 -108.9658 131° Southeast 122 140 7,400  Level Salt Lake Center
Thu 07:56:29 PM 44.4511 -108.9236 131° Southeast 131 151 8,200 780 Climbing Salt Lake Center
Thu 07:57:30 PM 44.4231 -108.8803 132° Southeast 140 161 9,000 878 Climbing Salt Lake Center
Thu 07:58:32 PM 44.3978 -108.8383 130° Southeast 143 165 10,000 919 Climbing Salt Lake Center
Thu 07:59:34 PM 44.3725 -108.7975 131° Southeast 142 163 10,900 823 Climbing Salt Lake Center
Thu 08:00:36 PM 44.3483 -108.7553 129° Southeast 141 162 11,700 726 Climbing Salt Lake Center
Thu 08:01:38 PM 44.3186 -108.7056 130° Southeast 140 161 12,400 634 Climbing Salt Lake Center
Thu 08:02:39 PM 44.2933 -108.6653 131° Southeast 139 160 13,000 293 Climbing Salt Lake Center
Thu 08:03:41 PM 44.2644 -108.6211 132° Southeast 144 166 13,000  Level Salt Lake Center
Thu 08:04:43 PM 44.2336 -108.5700 130° Southeast 155 178 13,000  Level Salt Lake Center
Thu 08:05:45 PM 44.2044 -108.5197 129° Southeast 163 188 13,000  Level Salt Lake Center
Thu 08:06:47 PM 44.1747 -108.4714 131° Southeast 165 190 13,000  Level Salt Lake Center
Thu 08:07:49 PM 44.1386 -108.4114 130° Southeast 167 192 13,000  Level Salt Lake Center
Thu 08:08:51 PM 44.1089 -108.3636 131° Southeast 166 191 13,000  Level Salt Lake Center
Thu 08:09:53 PM 44.0797 -108.3133 129° Southeast 166 191 13,000  Level Salt Lake Center
Thu 08:10:54 PM 44.0492 -108.2644 131° Southeast 167 192 13,000  Level Salt Lake Center
Thu 08:11:56 PM 44.0181 -108.2153 131° Southeast 169 194 13,000  Level Salt Lake Center
Thu 08:12:58 PM 43.9883 -108.1650 129° Southeast 169 194 13,000  Level Salt Lake Center
Thu 08:14:00 PM 43.9511 -108.1072 132° Southeast 169 194 13,000  Level Salt Lake Center
Thu 08:15:02 PM 43.9206 -108.0575 130° Southeast 169 194 13,000  Level Salt Lake Center
Thu 08:16:04 PM 43.8897 -108.0078 131° Southeast 170 196 13,000  Level Salt Lake Center
Thu 08:17:06 PM 43.8597 -107.9583 130° Southeast 169 194 13,000  Level Salt Lake Center
Thu 08:18:08 PM 43.8300 -107.9103 131° Southeast 168 193 13,000  Level Salt Lake Center
Thu 08:19:10 PM 43.7992 -107.8625 132° Southeast 167 192 13,000  Level Salt Lake Center
Thu 08:20:11 PM 43.7625 -107.8025 130° Southeast 168 193 13,000 49 Level Salt Lake Center
Thu 08:21:13 PM 43.7317 -107.7525 130° Southeast 170 196 13,100 48 Climbing Salt Lake Center
Thu 08:22:15 PM 43.7008 -107.7058 132° Southeast 169 194 13,100  Level Salt Lake Center
Thu 08:23:17 PM 43.6706 -107.6594 132° Southeast 166 191 13,100 -48 Level Salt Lake Center
Thu 08:24:19 PM 43.6408 -107.6106 130° Southeast 166 191 13,000 -49 Descending Salt Lake Center
Thu 08:25:20 PM 43.6100 -107.5639 132° Southeast 165 190 13,000  Level Salt Lake Center
Thu 08:26:22 PM 43.5736 -107.5047 130° Southeast 167 192 13,000  Level Salt Lake Center
Thu 08:27:24 PM 43.5433 -107.4558 131° Southeast 167 192 13,000  Level Salt Lake Center
Thu 08:28:26 PM 43.5131 -107.4078 131° Southeast 167 192 13,000  Level Salt Lake Center
Thu 08:29:28 PM 43.4825 -107.3586 131° Southeast 168 193 13,000 49 Level Salt Lake Center
Thu 08:30:29 PM 43.4514 -107.3108 132° Southeast 169 194 13,100 49 Climbing Salt Lake Center
Thu 08:31:31 PM 43.4189 -107.2611 132° Southeast 173 199 13,100  Level Salt Lake Center
Thu 08:32:33 PM 43.3869 -107.2125 132° Southeast 172 198 13,100 49 Level Salt Lake Center
Thu 08:33:34 PM 43.3556 -107.1622 131° Southeast 173 199 13,200  Climbing Salt Lake Center
Thu 08:34:36 PM 43.3167 -107.1006 131° Southeast 177 204 13,100 -48 Descending Salt Lake Center
Thu 08:35:38 PM 43.2844 -107.0500 131° Southeast 177 204 13,100 -194 Level Salt Lake Center
Thu 08:36:40 PM 43.2506 -106.9992 132° Southeast 180 207 12,700 -581 Descending Salt Lake Center
Thu 08:37:42 PM 43.2150 -106.9450 132° Southeast 188 216 11,900 -829 Descending Salt Lake Center
Thu 08:38:43 PM 43.1744 -106.8817 131° Southeast 191 220 11,000 -780 Descending Salt Lake Center
Thu 08:39:45 PM 43.1406 -106.8300 132° Southeast 191 220 10,300 -677 Descending Salt Lake Center
Thu 08:40:47 PM 43.1094 -106.7772 129° Southeast 188 216 9,600 -903 Descending Salt Lake Center
Thu 08:41:18 PM 43.0911 -106.7375 122° Southeast 189 217 8,900 -857 Descending Denver Center
Thu 08:42:32 PM 43.0617 -106.6789 124° Southeast 193 222 8,100 -662 Descending Denver Center
Thu 08:43:34 PM 43.0189 -106.6053 128° Southeast 193 222 7,400 -532 Descending Denver Center
Thu 08:44:36 PM 42.9892 -106.5517 127° Southeast 190 219 7,000 -290 Descending Denver Center
Thu 08:45:38 PM 42.9528 -106.4894 129° Southeast 188 216 6,800 -194 Descending Denver Center

Login

Don't have an account? Register now (free) for customized features, flight alerts, and more!